メインページ
METAR-TAF:

METAR-TAF

空港 :

Bleibler Ranch Aerodrome

クリントン, ブリティッシュコロンビア州, カナダ

緯度: 51-15-59N, 経度: 121-41-05W, 海抜: 1126m

現時点の気象観測

当レポートは50分前の13:00(UTC)に作成
西/北西の風 3kt
気温 7°C
湿度 81%
気圧 1019 hPa
視程: 14.5km
高度11000ftの雲はほとんどない
高度14000ftの曇り

METAR: CYIN 231300Z AUTO 30003KT 9SM FEW110 OVC140 07/04 A3009 RMK SLP190

時間: 06:50 (13:50 UTC)


TAF: 見つかりません

4,000以上の空港の気象観測と天気予報(METAR報とTAF報)

利用可能な観測所は地図上に黄色い丸と赤い丸で示す。

丸の上にカーソルを重ねると観測所名を参照できる。

次にクリックすると気象観測と天気予報を参照できる。

マップの切り替え:黒色「×」印の緑ボタンをクリックして拡大、「-」印の緑ボタンをクリックして縮小、緑色の三角印をクリックして隣りの地図に切り替え


METAR-TAF: